Time;durP1;ratioP1;P1;durP2;ratioP2;P2;SDS_P1;SDS_P2;PMS_P1;PMS_P2;Temp;Humidity;BMP_temperature;BMP_pressure;BME280_temperature;BME280_humidity;BME280_pressure;Samples;Min_cycle;Max_cycle;Signal;HPM_P1;HPM_P2
2022/03/28 00:01:23;;;;;;;103.83;29.50;;;10.10;54.50;;;;;;5074265;28;20167;-69
2022/03/28 00:03:49;;;;;;;48.93;25.77;;;10.20;55.40;;;;;;5073987;28;20200;-68
2022/03/28 00:06:14;;;;;;;43.50;23.90;;;10.10;54.60;;;;;;5072368;28;20221;-68
2022/03/28 00:08:40;;;;;;;39.47;22.70;;;10.00;64.30;;;;;;5074133;28;20168;-68
2022/03/28 00:11:06;;;;;;;37.50;23.13;;;9.90;67.30;;;;;;5072695;28;20176;-68
2022/03/28 00:13:33;;;;;;;37.70;23.03;;;10.00;62.40;;;;;;5074425;28;20257;-68
2022/03/28 00:15:59;;;;;;;43.37;23.53;;;10.00;59.90;;;;;;5074108;28;20176;-68
2022/03/28 00:18:25;;;;;;;36.30;23.00;;;10.00;59.70;;;;;;5073880;28;20169;-68
2022/03/28 00:20:53;;;;;;;40.07;24.13;;;10.00;58.20;;;;;;5073541;28;20171;-68
2022/03/28 00:23:22;;;;;;;39.37;23.50;;;9.90;55.30;;;;;;5073843;28;20239;-67
2022/03/28 00:25:48;;;;;;;39.70;23.00;;;9.80;52.30;;;;;;5073805;28;20157;-69
2022/03/28 00:28:14;;;;;;;41.20;22.50;;;9.60;58.30;;;;;;5073948;28;20183;-67
2022/03/28 00:30:41;;;;;;;42.87;22.70;;;9.50;71.40;;;;;;5073643;28;20274;-68
2022/03/28 00:33:06;;;;;;;41.97;22.87;;;9.50;74.20;;;;;;5073602;28;20164;-68
2022/03/28 00:35:33;;;;;;;40.30;23.47;;;9.50;78.60;;;;;;5073247;28;20183;-67
2022/03/28 00:37:59;;;;;;;38.20;22.93;;;9.60;75.60;;;;;;5073512;28;20193;-68
2022/03/28 00:40:27;;;;;;;41.97;23.47;;;9.70;68.30;;;;;;5073370;28;20177;-68
2022/03/28 00:42:54;;;;;;;39.37;23.70;;;9.70;59.90;;;;;;5073706;28;20303;-69
2022/03/28 00:45:20;;;;;;;43.87;25.10;;;9.70;52.20;;;;;;5073654;28;20182;-68
2022/03/28 00:47:46;;;;;;;41.87;24.50;;;9.70;53.70;;;;;;5073333;28;20682;-68
2022/03/28 00:50:12;;;;;;;44.17;22.97;;;9.60;56.00;;;;;;5072931;28;20251;-68
2022/03/28 00:52:38;;;;;;;39.80;23.27;;;9.50;66.80;;;;;;5073458;28;20172;-68
2022/03/28 00:55:06;;;;;;;40.93;22.90;;;9.40;73.90;;;;;;5071679;28;20243;-68
2022/03/28 00:57:32;;;;;;;42.47;23.33;;;9.20;81.40;;;;;;5073306;28;20199;-67
2022/03/28 01:00:05;;;;;;;34.10;22.97;;;9.20;86.50;;;;;;5071979;28;20305;-68
2022/03/28 01:02:31;;;;;;;41.40;24.07;;;9.30;82.50;;;;;;5073049;28;20283;-68
2022/03/28 01:04:57;;;;;;;35.47;23.53;;;9.40;70.20;;;;;;5072847;28;20647;-68
2022/03/28 01:07:26;;;;;;;36.53;23.60;;;9.50;62.40;;;;;;5073115;28;20192;-68
2022/03/28 01:09:54;;;;;;;35.57;22.40;;;9.50;55.50;;;;;;5073072;28;20194;-67
2022/03/28 01:12:20;;;;;;;42.17;23.83;;;9.50;54.20;;;;;;5073334;28;20179;-68
2022/03/28 01:14:48;;;;;;;38.63;23.00;;;9.50;55.70;;;;;;5071735;28;20182;-67
2022/03/28 01:19:58;;;;;;;43.70;25.17;;;9.30;61.80;;;;;;5072467;28;20183;-68
2022/03/28 01:22:23;;;;;;;40.00;23.13;;;9.30;69.70;;;;;;5073091;28;20207;-68
2022/03/28 01:24:49;;;;;;;40.70;23.10;;;9.30;68.30;;;;;;5073041;28;20617;-68
2022/03/28 01:27:15;;;;;;;37.83;23.67;;;9.20;69.00;;;;;;5072925;28;20177;-68
2022/03/28 01:29:44;;;;;;;38.87;23.83;;;9.00;72.70;;;;;;5073012;28;20190;-67
2022/03/28 01:32:13;;;;;;;40.13;24.07;;;9.00;79.10;;;;;;5073071;28;20171;-68
2022/03/28 01:34:38;;;;;;;34.93;24.07;;;9.00;74.70;;;;;;5072342;28;20173;-68
2022/03/28 01:37:04;;;;;;;40.50;23.87;;;9.00;69.50;;;;;;5072906;28;20226;-68
2022/03/28 01:39:32;;;;;;;39.37;24.30;;;8.90;69.30;;;;;;5071582;28;20647;-69
2022/03/28 01:41:58;;;;;;;37.70;25.27;;;8.80;79.60;;;;;;5073039;28;20201;-67
2022/03/28 01:44:24;;;;;;;38.67;25.27;;;8.70;80.90;;;;;;5072820;28;20176;-67
2022/03/28 01:46:50;;;;;;;40.97;24.90;;;8.70;78.40;;;;;;5072830;28;20259;-68
2022/03/28 01:49:18;;;;;;;36.93;23.87;;;8.70;68.50;;;;;;5072220;28;20207;-68
2022/03/28 01:51:45;;;;;;;41.10;24.67;;;8.70;65.80;;;;;;5072617;28;20723;-68
2022/03/28 01:54:11;;;;;;;42.30;25.17;;;8.80;71.20;;;;;;5075821;28;20206;-67
2022/03/28 01:56:37;;;;;;;38.43;24.17;;;8.80;65.20;;;;;;5075504;28;20275;-68
2022/03/28 01:59:04;;;;;;;36.37;23.97;;;8.80;57.70;;;;;;5076639;28;20686;-67
2022/03/28 02:01:30;;;;;;;36.50;24.20;;;8.80;60.10;;;;;;5076495;28;20184;-67
2022/03/28 02:03:57;;;;;;;40.33;23.97;;;8.70;63.90;;;;;;5076200;28;20204;-68
2022/03/28 02:06:23;;;;;;;38.47;25.27;;;8.80;60.90;;;;;;5076574;28;20165;-67
2022/03/28 02:08:48;;;;;;;33.10;23.80;;;8.80;55.00;;;;;;5075196;28;20234;-68
2022/03/28 02:11:14;;;;;;;33.43;23.90;;;8.60;54.20;;;;;;5076623;28;20255;-68
2022/03/28 02:13:40;;;;;;;40.40;23.97;;;8.50;56.80;;;;;;5076459;28;20173;-67
2022/03/28 02:16:06;;;;;;;38.03;24.40;;;8.50;60.00;;;;;;5076051;28;20524;-67
2022/03/28 02:18:32;;;;;;;34.07;23.83;;;8.50;64.40;;;;;;5074602;28;20172;-67
2022/03/28 02:20:58;;;;;;;37.03;24.70;;;8.50;60.40;;;;;;5076156;28;20183;-68
2022/03/28 02:23:23;;;;;;;35.77;24.07;;;8.50;60.80;;;;;;5076386;28;20209;-68
2022/03/28 02:25:49;;;;;;;34.20;23.70;;;8.60;55.70;;;;;;5076303;28;20164;-67
2022/03/28 02:28:15;;;;;;;37.20;21.13;;;8.60;46.60;;;;;;5076093;28;20204;-67
2022/03/28 02:30:40;;;;;;;32.20;21.50;;;8.60;38.70;;;;;;5075833;28;20255;-67
2022/03/28 02:33:06;;;;;;;35.90;22.87;;;8.60;30.70;;;;;;5075771;28;20180;-68
2022/03/28 02:35:33;;;;;;;39.07;24.53;;;8.60;29.00;;;;;;5076028;28;20646;-67
2022/03/28 02:38:01;;;;;;;35.17;22.60;;;8.50;36.90;;;;;;5075976;28;20168;-68
2022/03/28 02:40:32;;;;;;;32.10;23.20;;;8.50;40.00;;;;;;5074256;28;20165;-67
2022/03/28 02:42:58;;;;;;;37.90;23.93;;;8.40;48.50;;;;;;5075769;28;20207;-67
2022/03/28 02:45:25;;;;;;;37.53;24.63;;;8.40;56.30;;;;;;5075347;28;20263;-67
2022/03/28 02:47:51;;;;;;;34.20;22.07;;;8.30;61.20;;;;;;5074519;28;20253;-68
2022/03/28 02:50:16;;;;;;;35.97;22.23;;;8.20;61.00;;;;;;5075628;28;20519;-67
2022/03/28 02:52:42;;;;;;;41.27;24.00;;;8.20;63.90;;;;;;5075795;28;20640;-68
2022/03/28 02:55:08;;;;;;;43.07;25.77;;;8.20;63.40;;;;;;5075502;28;20686;-68
2022/03/28 02:57:34;;;;;;;35.67;23.50;;;8.20;66.20;;;;;;5075229;28;20694;-67
2022/03/28 03:00:00;;;;;;;35.77;23.10;;;8.30;63.30;;;;;;5074791;28;20180;-68
2022/03/28 03:02:26;;;;;;;36.90;24.00;;;8.30;57.30;;;;;;5075692;28;20212;-67
2022/03/28 03:04:51;;;;;;;39.13;24.63;;;8.40;51.80;;;;;;5074192;28;20173;-67
2022/03/28 03:07:18;;;;;;;37.47;24.23;;;8.40;49.20;;;;;;5075194;28;20176;-68
2022/03/28 03:09:44;;;;;;;37.47;24.13;;;8.30;48.90;;;;;;5075307;28;20188;-68
2022/03/28 03:12:10;;;;;;;43.13;23.97;;;8.30;56.50;;;;;;5075015;28;20628;-67
2022/03/28 03:14:35;;;;;;;40.37;22.97;;;8.10;66.20;;;;;;5074771;28;20169;-67
2022/03/28 03:17:02;;;;;;;38.03;22.90;;;8.10;73.90;;;;;;5075040;28;20212;-68
2022/03/28 03:19:28;;;;;;;35.33;22.80;;;8.00;76.70;;;;;;5074992;28;20161;-68
2022/03/28 03:21:54;;;;;;;36.03;22.47;;;8.00;80.50;;;;;;5074523;28;20185;-67
2022/03/28 03:24:19;;;;;;;39.50;23.87;;;7.90;82.20;;;;;;5074975;28;20172;-67
2022/03/28 03:26:45;;;;;;;41.70;23.87;;;7.90;79.80;;;;;;5074906;28;20226;-68
2022/03/28 03:29:11;;;;;;;37.17;23.33;;;7.80;79.80;;;;;;5074231;28;20172;-67
2022/03/28 03:31:37;;;;;;;36.83;23.33;;;7.80;84.10;;;;;;5074502;28;20286;-67
2022/03/28 03:34:03;;;;;;;36.63;24.00;;;7.70;84.90;;;;;;5074858;28;20160;-67
2022/03/28 03:36:29;;;;;;;38.53;23.33;;;7.70;84.20;;;;;;5074279;28;20679;-67
2022/03/28 03:38:55;;;;;;;33.83;22.60;;;7.70;90.10;;;;;;5074620;28;20257;-67
2022/03/28 03:41:20;;;;;;;37.93;22.03;;;7.70;90.20;;;;;;5074229;28;20176;-66
2022/03/28 03:43:46;;;;;;;34.77;23.07;;;7.70;88.20;;;;;;5073946;28;20229;-66
2022/03/28 03:46:11;;;;;;;33.60;22.23;;;7.60;90.40;;;;;;5074549;28;20635;-68
2022/03/28 03:48:37;;;;;;;41.97;24.37;;;7.60;90.40;;;;;;5074389;28;20175;-68
2022/03/28 03:51:03;;;;;;;33.47;22.53;;;7.60;89.70;;;;;;5073835;28;20222;-68
2022/03/28 03:53:29;;;;;;;34.03;21.97;;;7.60;87.80;;;;;;5073961;28;20203;-67
2022/03/28 03:55:54;;;;;;;35.63;23.23;;;7.60;86.30;;;;;;5072394;28;20224;-67
2022/03/28 03:58:20;;;;;;;38.20;23.40;;;7.60;85.90;;;;;;5073520;28;20275;-67
2022/03/28 04:00:45;;;;;;;34.83;22.83;;;7.70;88.00;;;;;;5074247;28;20165;-68
2022/03/28 04:03:11;;;;;;;35.07;23.30;;;7.70;81.90;;;;;;5073953;28;20236;-67
2022/03/28 04:05:37;;;;;;;38.77;23.00;;;7.70;81.70;;;;;;5072550;28;20168;-67
2022/03/28 04:08:06;;;;;;;36.10;21.70;;;7.70;79.70;;;;;;5073787;28;20214;-67
2022/03/28 04:10:32;;;;;;;37.30;23.40;;;7.60;75.10;;;;;;5073613;28;20173;-68
2022/03/28 04:12:58;;;;;;;34.93;21.43;;;7.60;77.50;;;;;;5072768;28;20234;-67
2022/03/28 04:15:24;;;;;;;46.17;26.23;;;7.50;81.20;;;;;;5073486;28;20627;-68
2022/03/28 04:17:49;;;;;;;40.47;22.40;;;7.50;84.40;;;;;;5072551;28;20669;-67
2022/03/28 04:20:16;;;;;;;43.00;23.57;;;7.50;86.80;;;;;;5073693;28;20169;-66
2022/03/28 04:22:42;;;;;;;44.37;23.63;;;7.40;86.60;;;;;;5073365;28;20204;-68
2022/03/28 04:25:09;;;;;;;39.57;23.40;;;7.40;86.10;;;;;;5073309;28;20156;-67
2022/03/28 04:27:36;;;;;;;40.80;23.27;;;7.30;89.90;;;;;;5071682;28;20214;-67
2022/03/28 04:30:04;;;;;;;45.43;23.10;;;7.20;92.00;;;;;;5073566;28;20175;-66
2022/03/28 04:32:30;;;;;;;40.73;23.37;;;7.20;93.30;;;;;;5073358;28;20194;-68
2022/03/28 04:34:55;;;;;;;40.40;23.93;;;7.10;94.40;;;;;;5071817;28;20172;-68
2022/03/28 04:37:21;;;;;;;37.33;23.37;;;7.10;95.90;;;;;;5073099;28;20498;-66
2022/03/28 04:39:47;;;;;;;36.90;22.67;;;7.10;96.50;;;;;;5071345;28;20172;-68
2022/03/28 04:42:13;;;;;;;38.73;23.30;;;7.00;96.90;;;;;;5072775;28;20208;-67
2022/03/28 04:44:38;;;;;;;42.47;22.83;;;7.00;96.90;;;;;;5073008;28;20521;-67
2022/03/28 04:47:04;;;;;;;40.30;23.50;;;6.90;97.40;;;;;;5073040;28;20179;-67
2022/03/28 04:49:29;;;;;;;41.97;23.20;;;6.90;97.40;;;;;;5072699;28;20186;-68
2022/03/28 04:51:55;;;;;;;37.23;23.13;;;7.00;97.50;;;;;;5072540;28;20222;-69
2022/03/28 04:54:21;;;;;;;40.90;23.00;;;6.90;95.10;;;;;;5070703;28;20216;-68
2022/03/28 04:56:46;;;;;;;41.97;23.60;;;6.90;93.90;;;;;;5072532;28;20181;-67
2022/03/28 04:59:12;;;;;;;42.70;22.77;;;6.80;94.40;;;;;;5071012;28;20169;-68
2022/03/28 05:01:38;;;;;;;44.43;23.90;;;6.80;95.80;;;;;;5071343;28;20635;-67
2022/03/28 05:04:04;;;;;;;47.17;23.40;;;6.80;95.80;;;;;;5072581;28;20563;-68
2022/03/28 05:06:30;;;;;;;40.60;23.53;;;6.80;95.60;;;;;;5072558;28;20274;-67
2022/03/28 05:08:55;;;;;;;40.83;22.63;;;6.80;94.90;;;;;;5071702;28;20172;-67
2022/03/28 05:11:22;;;;;;;47.00;24.43;;;6.80;94.80;;;;;;5071427;28;20689;-68
2022/03/28 05:13:49;;;;;;;50.57;23.93;;;6.80;94.00;;;;;;5072737;28;20204;-67
2022/03/28 05:16:15;;;;;;;42.87;24.50;;;6.80;93.60;;;;;;5072249;28;20662;-68
2022/03/28 05:18:41;;;;;;;47.33;23.57;;;6.80;93.30;;;;;;5072081;28;20234;-68
2022/03/28 05:21:07;;;;;;;43.77;24.10;;;6.80;93.70;;;;;;5071768;28;20180;-68
2022/03/28 05:23:32;;;;;;;54.90;24.77;;;6.80;94.20;;;;;;5071561;28;20692;-67
2022/03/28 05:25:58;;;;;;;47.07;24.83;;;6.80;93.90;;;;;;5071584;28;20172;-67
2022/03/28 05:28:23;;;;;;;46.77;24.83;;;6.90;94.60;;;;;;5071312;28;20226;-67
2022/03/28 05:30:49;;;;;;;54.13;24.33;;;6.90;92.60;;;;;;5071660;28;20235;-67
2022/03/28 05:33:15;;;;;;;54.30;25.10;;;6.90;91.80;;;;;;5072341;28;20251;-67
2022/03/28 05:35:44;;;;;;;60.07;24.70;;;6.90;91.50;;;;;;5070442;28;20180;-68
2022/03/28 05:38:11;;;;;;;58.20;26.70;;;7.00;92.10;;;;;;5071844;28;20244;-68
2022/03/28 05:40:37;;;;;;;49.83;24.17;;;7.10;92.20;;;;;;5070945;28;20234;-69
2022/03/28 05:43:03;;;;;;;61.70;26.10;;;7.10;91.80;;;;;;5071868;28;20230;-67
2022/03/28 05:45:29;;;;;;;58.27;26.07;;;7.20;92.90;;;;;;5070889;28;20229;-68
2022/03/28 05:47:55;;;;;;;54.53;25.07;;;7.40;92.90;;;;;;5071362;28;20176;-68
2022/03/28 05:50:22;;;;;;;47.10;23.40;;;7.60;88.20;;;;;;5071410;28;20172;-68
2022/03/28 05:52:48;;;;;;;52.40;24.73;;;7.80;86.80;;;;;;5071245;28;20184;-67
2022/03/28 05:55:14;;;;;;;53.90;24.73;;;8.20;83.60;;;;;;5068868;28;20228;-67
2022/03/28 05:57:39;;;;;;;50.20;23.93;;;8.70;75.40;;;;;;5071527;28;20180;-67
2022/03/28 06:00:09;;;;;;;51.67;24.03;;;9.40;70.40;;;;;;5071511;28;20545;-67
2022/03/28 06:02:36;;;;;;;58.87;21.60;;;10.10;43.00;;;;;;5070157;28;20216;-67
2022/03/28 06:05:01;;;;;;;45.33;21.93;;;10.70;1.00;;;;;;5069700;28;20280;-68
2022/03/28 06:07:27;;;;;;;49.13;22.23;;;11.30;1.00;;;;;;5070217;28;20632;-69
2022/03/28 06:09:52;;;;;;;45.03;21.87;;;11.60;1.00;;;;;;5070791;28;20264;-67
2022/03/28 06:12:18;;;;;;;48.07;21.57;;;12.20;1.00;;;;;;5070905;28;20207;-68
2022/03/28 06:14:44;;;;;;;35.43;20.03;;;12.70;99.90;;;;;;5070836;28;20198;-66
2022/03/28 06:17:11;;;;;;;34.83;20.13;;;13.30;1.00;;;;;;5071147;28;20524;-68
2022/03/28 06:19:37;;;;;;;37.13;19.87;;;13.70;99.90;;;;;;5071243;28;20207;-68
2022/03/28 06:22:03;;;;;;;40.17;20.33;;;14.10;99.90;;;;;;5071344;28;20236;-68
2022/03/28 06:24:29;;;;;;;36.27;19.03;;;14.50;99.90;;;;;;5070627;28;20550;-67
2022/03/28 06:26:54;;;;;;;42.03;20.17;;;14.80;99.90;;;;;;5071556;28;20669;-68
2022/03/28 06:29:20;;;;;;;35.00;18.80;;;15.20;1.00;;;;;;5071051;28;20654;-68
2022/03/28 06:31:46;;;;;;;34.00;19.30;;;15.20;99.90;;;;;;5071144;28;20173;-68
2022/03/28 06:34:12;;;;;;;32.23;19.80;;;14.90;1.00;;;;;;5071077;28;20173;-68
2022/03/28 06:36:39;;;;;;;37.77;19.57;;;14.80;1.00;;;;;;5071014;28;20650;-68
2022/03/28 06:39:04;;;;;;;35.93;18.93;;;14.80;1.00;;;;;;5071709;28;20197;-68
2022/03/28 06:41:30;;;;;;;39.20;21.00;;;15.00;1.00;;;;;;5074198;28;20639;-67
2022/03/28 06:43:56;;;;;;;38.20;19.27;;;15.30;1.00;;;;;;5074639;28;20696;-67
2022/03/28 06:46:21;;;;;;;36.17;19.57;;;16.00;99.90;;;;;;5060713;28;20184;-68
2022/03/28 06:48:49;;;;;;;39.07;20.03;;;16.40;1.00;;;;;;5057959;28;20196;-68
2022/03/28 06:51:14;;;;;;;45.40;20.17;;;17.00;1.00;;;;;;5072970;28;20522;-68
2022/03/28 06:53:40;;;;;;;45.60;20.37;;;17.90;1.00;;;;;;5067004;28;20186;-68
2022/03/28 06:56:06;;;;;;;44.53;21.15;;;18.40;99.90;;;;;;5078004;28;20212;-68
2022/03/28 06:58:31;;;;;;;39.85;20.40;;;18.50;99.90;;;;;;5083209;28;20165;-67
2022/03/28 07:00:57;;;;;;;36.55;21.40;;;19.00;99.90;;;;;;5086851;28;20235;-69
2022/03/28 07:03:22;;;;;;;36.42;20.05;;;19.90;99.90;;;;;;5093552;28;20207;-68
2022/03/28 07:05:48;;;;;;;43.15;20.75;;;20.60;99.90;;;;;;5055929;28;20161;-69
2022/03/28 07:08:14;;;;;;;36.42;20.50;;;21.30;99.90;;;;;;5078963;28;20179;-68
2022/03/28 07:10:40;;;;;;;41.40;21.88;;;22.10;99.90;;;;;;5082842;28;20215;-68
2022/03/28 07:13:06;;;;;;;41.72;20.58;;;22.80;99.90;;;;;;5087753;28;20172;-68
2022/03/28 07:15:31;;;;;;;47.65;21.65;;;22.60;99.90;;;;;;5092818;28;20209;-67
2022/03/28 07:18:02;;;;;;;40.97;21.77;;;23.00;99.90;;;;;;5076960;28;20596;-69
2022/03/28 07:20:30;;;;;;;39.60;21.33;;;23.70;99.90;;;;;;5079039;28;20667;-69
2022/03/28 07:22:57;;;;;;;37.67;21.38;;;23.50;99.90;;;;;;5059810;28;20231;-69
2022/03/28 07:25:24;;;;;;;44.95;21.35;;;23.70;99.90;;;;;;5066536;28;20173;-69
2022/03/28 07:27:50;;;;;;;37.45;21.05;;;23.00;99.90;;;;;;5057277;28;20211;-69
2022/03/28 07:30:17;;;;;;;45.60;22.48;;;22.80;99.90;;;;;;5072945;28;20175;-70
2022/03/28 07:32:44;;;;;;;43.58;21.95;;;22.90;99.90;;;;;;5084833;28;20207;-70
2022/03/28 07:35:11;;;;;;;42.13;22.13;;;23.00;99.90;;;;;;5071930;28;20168;-71
2022/03/28 07:37:38;;;;;;;46.35;22.73;;;24.40;99.90;;;;;;5069715;28;20177;-70
2022/03/28 07:40:06;;;;;;;34.45;21.50;;;25.70;99.90;;;;;;5060604;28;20169;-70
2022/03/28 07:42:33;;;;;;;33.60;21.95;;;26.30;99.90;;;;;;5061379;28;20205;-70
2022/03/28 07:44:59;;;;;;;32.97;22.23;;;27.00;99.90;;;;;;5070671;28;20161;-70
2022/03/28 07:47:26;;;;;;;30.75;21.00;;;27.10;99.90;;;;;;5090055;28;20196;-70
2022/03/28 07:49:55;;;;;;;51.03;21.83;;;27.20;99.90;;;;;;5072204;28;20272;-71
2022/03/28 07:52:21;;;;;;;35.17;21.48;;;25.80;99.90;;;;;;5071995;28;20195;-71
2022/03/28 07:54:48;;;;;;;33.55;21.55;;;26.50;99.90;;;;;;5072451;28;20696;-72
2022/03/28 07:57:15;;;;;;;38.88;22.52;;;26.60;99.90;;;;;;5082273;28;20528;-71
2022/03/28 07:59:42;;;;;;;29.45;20.58;;;27.20;99.90;;;;;;5074527;28;20177;-71
2022/03/28 08:02:08;;;;;;;40.15;23.92;;;27.30;99.90;;;;;;5068453;28;20545;-71
2022/03/28 08:04:34;;;;;;;35.45;21.88;;;27.40;99.90;;;;;;5062785;28;20169;-70
2022/03/28 08:07:03;;;;;;;34.00;21.30;;;27.20;99.90;;;;;;5088143;28;20287;-71
2022/03/28 08:09:28;;;;;;;30.55;21.30;;;27.20;1.00;;;;;;5092836;28;20217;-71
2022/03/28 08:11:56;;;;;;;35.65;21.10;;;27.50;1.00;;;;;;5091674;28;20168;-71
2022/03/28 08:14:22;;;;;;;39.25;22.55;;;27.60;1.00;;;;;;5092576;28;20164;-71
2022/03/28 08:16:49;;;;;;;33.35;22.02;;;27.90;1.00;;;;;;5093249;28;20213;-71
2022/03/28 08:19:14;;;;;;;34.20;21.77;;;27.80;1.00;;;;;;5070501;28;20169;-71
2022/03/28 08:21:40;;;;;;;46.15;22.50;;;28.10;99.90;;;;;;5053830;28;20168;-70
2022/03/28 08:24:06;;;;;;;30.08;22.80;;;27.70;79.30;;;;;;5052946;28;20201;-70
2022/03/28 08:26:32;;;;;;;49.20;24.38;;;27.00;1.00;;;;;;5053133;28;20686;-71
2022/03/28 08:28:58;;;;;;;37.03;23.00;;;27.50;1.00;;;;;;5052081;28;20272;-71
2022/03/28 08:31:23;;;;;;;36.28;22.80;;;27.60;82.60;;;;;;5053568;28;20223;-71
2022/03/28 08:33:49;;;;;;;47.42;23.23;;;27.60;1.00;;;;;;5062084;28;20177;-70
2022/03/28 08:36:14;;;;;;;33.40;22.02;;;27.30;82.90;;;;;;5068177;28;20168;-70
2022/03/28 08:38:40;;;;;;;32.35;21.50;;;27.40;45.50;;;;;;5073561;28;20192;-71
2022/03/28 08:41:12;;;;;;;37.75;24.05;;;27.50;28.50;;;;;;5070475;28;20657;-70
2022/03/28 08:43:38;;;;;;;34.70;22.45;;;27.40;1.00;;;;;;5072868;28;20705;-71
2022/03/28 08:46:05;;;;;;;35.17;22.83;;;27.30;1.00;;;;;;5072429;28;20183;-70
2022/03/28 08:48:35;;;;;;;39.80;22.67;;;27.50;1.00;;;;;;5071954;28;20176;-71
2022/03/28 08:51:02;;;;;;;37.25;22.88;;;27.80;1.00;;;;;;5070504;28;20208;-71
2022/03/28 08:53:28;;;;;;;47.80;24.10;;;27.70;1.00;;;;;;5055777;28;20177;-72
2022/03/28 08:55:57;;;;;;;32.55;22.17;;;28.00;99.90;;;;;;5054397;28;20742;-71
2022/03/28 08:58:22;;;;;;;37.75;23.30;;;28.00;1.00;;;;;;5050747;28;20200;-72
2022/03/28 09:00:48;;;;;;;26.70;21.35;;;27.10;1.00;;;;;;5070066;28;20192;-73
2022/03/28 09:03:14;;;;;;;40.15;23.55;;;27.70;1.00;;;;;;5070410;28;20239;-70
2022/03/28 09:05:40;;;;;;;38.05;22.65;;;27.60;1.00;;;;;;5057680;28;20185;-70
2022/03/28 09:08:08;;;;;;;32.53;23.60;;;28.10;1.00;;;;;;5051900;28;20176;-70
2022/03/28 09:10:35;;;;;;;35.38;22.30;;;27.90;1.00;;;;;;5053170;28;20177;-71
2022/03/28 09:13:11;;;;;;;26.75;22.67;;;27.50;1.00;;;;;;5057487;28;20192;-70
2022/03/28 09:15:45;;;;;;;33.22;23.63;;;27.50;1.00;;;;;;5072066;28;20255;-70
2022/03/28 09:18:31;;;;;;;36.28;24.10;;;28.10;1.00;;;;;;5070074;28;20200;-72
2022/03/28 09:21:00;;;;;;;32.33;23.88;;;28.50;1.00;;;;;;5062093;28;20192;-70
2022/03/28 09:23:40;;;;;;;35.00;23.20;;;29.00;1.00;;;;;;5071949;28;20223;-71
2022/03/28 09:26:13;;;;;;;27.10;22.13;;;29.50;1.00;;;;;;5052563;28;20249;-71
2022/03/28 09:28:46;;;;;;;26.15;22.00;;;29.90;99.90;;;;;;5051895;28;20165;-71
2022/03/28 09:31:30;;;;;;;29.40;22.05;;;30.00;1.00;;;;;;5054669;28;20259;-70
2022/03/28 09:34:11;;;;;;;26.13;21.13;;;29.90;1.00;;;;;;5061164;28;20188;-71
2022/03/28 09:36:39;;;;;;;26.27;21.13;;;30.00;99.90;;;;;;5066072;28;20172;-71
2022/03/28 09:39:07;;;;;;;30.08;20.83;;;30.00;1.00;;;;;;5069160;28;20262;-71
2022/03/28 09:41:33;;;;;;;24.98;22.05;;;30.20;1.00;;;;;;5070029;28;20164;-71
2022/03/28 09:43:59;;;;;;;33.10;21.90;;;30.10;99.90;;;;;;5059280;28;20252;-71
2022/03/28 09:46:26;;;;;;;27.02;22.77;;;30.20;99.90;;;;;;5054565;28;20184;-71
2022/03/28 09:48:53;;;;;;;25.67;21.08;;;30.50;1.00;;;;;;5060734;28;20173;-70
2022/03/28 09:51:21;;;;;;;26.17;21.90;;;30.00;99.90;;;;;;5053701;28;20173;-70
2022/03/28 09:53:48;;;;;;;27.25;21.20;;;29.00;99.90;;;;;;5051597;28;20161;-72
2022/03/28 09:56:14;;;;;;;28.35;21.42;;;29.30;9.10;;;;;;5051844;28;20248;-71
2022/03/28 09:58:50;;;;;;;40.05;23.60;;;30.20;99.90;;;;;;5065551;28;20246;-71
2022/03/28 10:01:29;;;;;;;29.85;22.15;;;30.20;1.00;;;;;;5071216;28;20192;-71
2022/03/28 10:04:03;;;;;;;28.45;21.83;;;29.30;1.00;;;;;;5071638;28;20204;-71
2022/03/28 10:06:29;;;;;;;25.27;21.58;;;29.20;1.00;;;;;;5072194;28;20221;-71
2022/03/28 10:08:55;;;;;;;24.83;20.75;;;29.80;1.00;;;;;;5071783;28;20259;-70
2022/03/28 10:11:20;;;;;;;32.13;20.95;;;29.60;1.00;;;;;;5071542;28;20167;-71
2022/03/28 10:13:47;;;;;;;31.70;24.35;;;30.00;75.80;;;;;;5072101;28;20165;-70
2022/03/28 10:16:13;;;;;;;30.55;21.77;;;29.50;99.90;;;;;;5073766;28;20169;-71
2022/03/28 10:18:40;;;;;;;32.95;22.02;;;29.90;87.80;;;;;;5076390;28;20204;-71
2022/03/28 10:21:21;;;;;;;25.55;21.48;;;29.90;1.00;;;;;;5075020;28;20169;-71
2022/03/28 10:23:47;;;;;;;22.73;20.30;;;29.70;1.00;;;;;;5075121;28;20219;-70
2022/03/28 10:26:13;;;;;;;25.10;21.77;;;29.70;1.00;;;;;;5074474;28;20252;-71
2022/03/28 10:28:39;;;;;;;27.98;22.55;;;29.60;64.00;;;;;;5072789;28;20180;-69
2022/03/28 10:31:13;;;;;;;24.60;21.48;;;29.50;1.00;;;;;;5059962;28;20485;-70
2022/03/28 10:33:51;;;;;;;29.92;22.05;;;29.40;1.00;;;;;;5065005;28;20176;-69
2022/03/28 10:36:21;;;;;;;23.40;20.27;;;29.10;1.00;;;;;;5054721;28;20173;-70
2022/03/28 10:38:51;;;;;;;27.80;20.45;;;28.60;1.00;;;;;;5064785;28;20180;-70
2022/03/28 10:41:19;;;;;;;27.25;19.70;;;29.10;1.00;;;;;;5055919;28;20180;-69
2022/03/28 10:43:45;;;;;;;23.13;19.67;;;28.40;99.90;;;;;;5059339;28;20201;-70
2022/03/28 10:46:12;;;;;;;24.38;19.77;;;28.00;99.90;;;;;;5074042;28;20168;-69
2022/03/28 10:48:53;;;;;;;22.65;18.92;;;28.00;99.90;;;;;;5074843;28;20206;-71
2022/03/28 10:51:29;;;;;;;24.55;18.08;;;28.10;99.90;;;;;;5075107;28;20480;-70
2022/03/28 10:54:05;;;;;;;26.17;18.15;;;28.70;99.90;;;;;;5073477;28;20207;-70
2022/03/28 10:56:36;;;;;;;20.63;17.85;;;28.50;99.90;;;;;;5063833;28;20242;-70
2022/03/28 10:59:09;;;;;;;28.25;18.77;;;28.30;99.90;;;;;;5072205;28;20529;-70
2022/03/28 11:01:35;;;;;;;22.50;17.42;;;28.40;99.90;;;;;;5073720;28;20337;-71
2022/03/28 11:04:16;;;;;;;22.92;18.00;;;28.10;88.10;;;;;;5074502;28;20227;-70
2022/03/28 11:07:04;;;;;;;22.80;18.45;;;28.20;39.10;;;;;;5074682;28;20210;-70
2022/03/28 11:09:34;;;;;;;24.40;19.45;;;29.20;99.90;;;;;;5069079;28;20177;-70
2022/03/28 11:12:09;;;;;;;22.70;20.00;;;28.70;1.00;;;;;;5054400;28;20175;-70
2022/03/28 11:15:13;;;;;;;23.35;20.73;;;28.60;1.00;;;;;;5062802;28;20222;-70
2022/03/28 11:17:53;;;;;;;24.30;19.20;;;28.80;1.00;;;;;;5032244;28;20299;-70
2022/03/28 11:20:23;;;;;;;26.17;19.98;;;28.40;99.90;;;;;;5014192;28;20231;-70
2022/03/28 11:22:55;;;;;;;25.63;20.30;;;26.80;99.90;;;;;;5031719;28;20218;-70
2022/03/28 11:25:26;;;;;;;31.60;20.75;;;26.10;99.90;;;;;;5024441;28;20186;-71
2022/03/28 11:28:19;;;;;;;25.30;19.35;;;25.80;99.90;;;;;;5011281;28;20185;-70
2022/03/28 11:30:45;;;;;;;27.88;20.20;;;26.40;99.90;;;;;;5012426;28;20536;-71
2022/03/28 11:33:13;;;;;;;23.35;19.02;;;26.80;99.90;;;;;;5012115;28;20175;-70
2022/03/28 11:35:40;;;;;;;27.15;20.15;;;26.70;99.90;;;;;;5013534;28;20218;-70
2022/03/28 11:38:06;;;;;;;27.00;20.60;;;25.60;99.90;;;;;;5012434;28;20186;-70
2022/03/28 11:40:39;;;;;;;26.52;19.77;;;26.10;99.90;;;;;;5012328;28;20253;-69
2022/03/28 11:43:06;;;;;;;27.35;20.83;;;26.60;99.90;;;;;;5011834;28;20655;-70
2022/03/28 11:45:33;;;;;;;26.52;20.80;;;27.20;99.90;;;;;;5031488;28;20255;-71
2022/03/28 11:47:59;;;;;;;27.20;19.88;;;27.30;99.90;;;;;;5026105;28;20225;-69
2022/03/28 11:50:30;;;;;;;31.17;19.65;;;27.70;1.00;;;;;;5024447;28;20186;-70
2022/03/28 11:52:56;;;;;;;24.92;18.92;;;27.30;1.00;;;;;;5016997;28;20186;-69
2022/03/28 11:55:25;;;;;;;22.17;17.33;;;26.30;1.00;;;;;;5060761;28;20220;-69
2022/03/28 12:00:37;;;;;;;22.92;17.63;;;26.80;1.00;;;;;;5065448;28;20231;-70
2022/03/28 12:03:05;;;;;;;26.33;18.42;;;27.10;99.90;;;;;;5074132;28;20207;-70
2022/03/28 12:05:43;;;;;;;29.58;20.08;;;26.40;1.00;;;;;;5060912;28;20221;-70
2022/03/28 12:08:15;;;;;;;24.67;20.05;;;26.00;1.00;;;;;;5086100;28;20213;-69
2022/03/28 12:10:51;;;;;;;26.65;20.17;;;26.50;1.00;;;;;;5092641;28;20204;-69
2022/03/28 12:13:18;;;;;;;34.92;20.95;;;26.40;1.00;;;;;;5091311;28;20176;-69
2022/03/28 12:15:46;;;;;;;27.40;19.48;;;26.00;1.00;;;;;;5062818;28;20172;-70
2022/03/28 12:18:17;;;;;;;23.13;17.63;;;25.80;1.00;;;;;;5072471;28;20173;-69
2022/03/28 12:20:45;;;;;;;24.83;19.40;;;25.30;1.00;;;;;;5089540;28;20164;-69
2022/03/28 12:23:13;;;;;;;25.85;19.73;;;25.20;99.90;;;;;;5057154;28;20247;-70
2022/03/28 12:25:41;;;;;;;26.48;20.08;;;25.00;99.90;;;;;;5071709;28;20185;-70
2022/03/28 12:28:09;;;;;;;26.88;20.20;;;24.60;99.90;;;;;;5075880;28;20169;-69
2022/03/28 12:30:45;;;;;;;29.27;19.00;;;24.00;99.90;;;;;;5072812;28;20173;-69
2022/03/28 12:33:15;;;;;;;28.10;19.65;;;23.60;99.90;;;;;;5087642;28;20528;-68
2022/03/28 12:35:55;;;;;;;29.33;19.80;;;23.30;99.90;;;;;;5072055;28;20168;-68
2022/03/28 12:38:24;;;;;;;27.52;19.38;;;22.90;99.90;;;;;;5071330;28;20176;-67
2022/03/28 12:40:54;;;;;;;28.48;19.83;;;22.90;99.90;;;;;;5073663;28;20176;-68